Time;durP1;ratioP1;P1;durP2;ratioP2;P2;SDS_P1;SDS_P2;PMS_P1;PMS_P2;Temp;Humidity;BMP_temperature;BMP_pressure;BME280_temperature;BME280_humidity;BME280_pressure;Samples;Min_cycle;Max_cycle;Signal;HPM_P1;HPM_P2
2022/07/17 00:02:11;;;;;;;3.75;0.40;;;12.60;99.90;;;;;;5010923;28;20728;-76
2022/07/17 00:04:36;;;;;;;5.38;0.50;;;12.60;99.90;;;;;;5011367;28;20464;-76
2022/07/17 00:07:02;;;;;;;4.68;0.50;;;12.50;99.90;;;;;;5009743;28;20021;-77
2022/07/17 00:09:28;;;;;;;4.10;0.50;;;12.50;99.90;;;;;;5007676;28;20041;-77
2022/07/17 00:11:53;;;;;;;3.92;0.40;;;12.50;99.90;;;;;;5007495;28;20441;-77
2022/07/17 00:14:19;;;;;;;2.50;0.50;;;12.40;99.90;;;;;;5010525;28;20441;-76
2022/07/17 00:16:44;;;;;;;1.67;0.38;;;12.40;99.90;;;;;;5011514;28;20029;-76
2022/07/17 00:19:10;;;;;;;5.03;0.50;;;12.40;99.90;;;;;;5005442;28;20022;-76
2022/07/17 00:21:35;;;;;;;2.90;0.40;;;12.30;99.90;;;;;;5008896;28;20030;-76
2022/07/17 00:24:01;;;;;;;7.45;0.60;;;12.30;99.90;;;;;;5009298;28;20406;-76
2022/07/17 00:26:27;;;;;;;4.10;0.50;;;12.30;99.90;;;;;;5008237;28;20401;-78
2022/07/17 00:28:52;;;;;;;2.22;0.50;;;12.20;99.90;;;;;;5005842;28;20029;-76
2022/07/17 00:31:18;;;;;;;8.23;0.70;;;12.20;99.90;;;;;;5009380;28;20116;-76
2022/07/17 00:33:43;;;;;;;4.47;0.65;;;12.20;99.90;;;;;;5007926;28;20030;-76
2022/07/17 00:36:09;;;;;;;5.70;0.50;;;12.20;99.90;;;;;;5006717;28;20045;-76
2022/07/17 00:38:34;;;;;;;6.75;0.60;;;12.10;99.90;;;;;;5006854;28;20025;-76
2022/07/17 00:41:00;;;;;;;6.53;0.73;;;12.10;99.90;;;;;;5009703;28;20604;-76
2022/07/17 00:43:26;;;;;;;5.60;0.40;;;12.10;99.90;;;;;;5009408;28;20041;-77
2022/07/17 00:46:00;;;;;;;5.30;0.95;;;12.10;99.90;;;;;;5008422;28;20160;-77
2022/07/17 00:48:26;;;;;;;4.35;0.50;;;12.10;99.90;;;;;;5009889;28;20497;-77
2022/07/17 00:50:52;;;;;;;5.13;0.55;;;12.00;99.90;;;;;;5009227;28;20034;-76
2022/07/17 00:53:19;;;;;;;4.93;0.88;;;12.00;99.90;;;;;;5007510;28;20046;-76
2022/07/17 00:55:46;;;;;;;2.47;0.40;;;12.00;99.90;;;;;;5007765;28;20104;-77
2022/07/17 00:58:23;;;;;;;2.25;0.60;;;12.00;99.90;;;;;;5006699;28;20080;-76
2022/07/17 01:00:51;;;;;;;5.30;0.60;;;12.00;99.90;;;;;;5008234;28;20034;-76
2022/07/17 01:03:18;;;;;;;3.35;0.40;;;11.90;99.90;;;;;;5006407;28;20029;-77
2022/07/17 01:05:44;;;;;;;3.97;0.40;;;12.00;99.90;;;;;;5005412;28;20033;-78
2022/07/17 01:08:09;;;;;;;3.55;0.43;;;12.00;99.90;;;;;;5010154;28;20029;-77
2022/07/17 01:10:35;;;;;;;3.53;0.50;;;12.00;99.90;;;;;;5004380;28;20097;-78
2022/07/17 01:13:01;;;;;;;6.53;0.50;;;12.00;99.90;;;;;;5006952;28;20135;-77
2022/07/17 01:15:27;;;;;;;5.22;0.70;;;12.00;99.90;;;;;;5011618;28;20014;-78
2022/07/17 01:17:52;;;;;;;3.75;0.50;;;12.00;99.90;;;;;;5004568;28;20030;-78
2022/07/17 01:20:18;;;;;;;6.78;0.60;;;12.00;99.90;;;;;;5008207;28;20042;-77
2022/07/17 01:22:46;;;;;;;5.47;0.50;;;12.00;99.90;;;;;;5008712;28;20501;-77
2022/07/17 01:25:13;;;;;;;3.47;0.70;;;12.00;99.90;;;;;;5009142;28;20088;-77
2022/07/17 01:27:39;;;;;;;2.95;0.40;;;12.00;99.90;;;;;;5009407;28;20092;-78
2022/07/17 01:30:06;;;;;;;4.90;0.77;;;12.10;99.90;;;;;;5006136;28;20034;-77
2022/07/17 01:32:36;;;;;;;3.78;1.13;;;12.00;99.90;;;;;;5004978;28;20033;-77
2022/07/17 01:35:03;;;;;;;5.03;0.63;;;11.90;99.90;;;;;;5006745;28;20495;-77
2022/07/17 01:37:29;;;;;;;2.75;0.50;;;11.80;99.90;;;;;;5007976;28;20120;-77
2022/07/17 01:39:55;;;;;;;8.30;0.80;;;11.80;99.90;;;;;;5006714;28;20112;-78
2022/07/17 01:42:22;;;;;;;2.05;0.50;;;11.60;99.90;;;;;;5009680;28;20620;-78
2022/07/17 01:44:47;;;;;;;4.93;0.50;;;11.50;99.90;;;;;;5008809;28;20026;-77
2022/07/17 01:47:17;;;;;;;2.63;0.73;;;11.50;99.90;;;;;;5006055;28;20034;-78
2022/07/17 01:49:47;;;;;;;4.15;0.65;;;11.40;99.90;;;;;;5012910;28;20030;-77
2022/07/17 01:52:13;;;;;;;4.93;0.60;;;11.40;99.90;;;;;;5009272;28;20440;-78
2022/07/17 01:54:40;;;;;;;5.05;0.55;;;11.30;99.90;;;;;;5014224;28;20497;-78
2022/07/17 01:57:06;;;;;;;4.35;0.55;;;11.30;99.90;;;;;;5008081;28;20049;-77
2022/07/17 01:59:31;;;;;;;12.23;1.77;;;11.20;99.90;;;;;;5004982;28;20026;-77
2022/07/17 02:01:57;;;;;;;4.30;0.80;;;11.20;99.90;;;;;;5020192;28;20065;-77
2022/07/17 02:04:23;;;;;;;4.95;0.52;;;11.20;99.90;;;;;;5013253;28;20030;-78
2022/07/17 02:06:48;;;;;;;4.68;0.65;;;11.20;99.90;;;;;;5010680;28;20037;-77
2022/07/17 02:09:14;;;;;;;6.22;0.60;;;11.10;99.90;;;;;;5012215;28;20030;-77
2022/07/17 02:11:39;;;;;;;2.47;0.57;;;11.10;99.90;;;;;;5013815;28;20026;-77
2022/07/17 02:14:05;;;;;;;2.75;0.50;;;11.10;99.90;;;;;;5025053;28;20117;-77
2022/07/17 02:16:30;;;;;;;2.97;0.50;;;11.00;99.90;;;;;;5017752;28;20026;-77
2022/07/17 02:18:56;;;;;;;2.95;0.50;;;11.00;99.90;;;;;;5018036;28;20029;-77
2022/07/17 02:21:21;;;;;;;5.20;0.70;;;11.00;99.90;;;;;;5016718;28;20454;-77
2022/07/17 02:23:47;;;;;;;3.55;0.70;;;10.90;99.90;;;;;;5013883;28;20026;-77
2022/07/17 02:26:12;;;;;;;5.75;0.68;;;10.90;99.90;;;;;;5015432;28;20066;-78
2022/07/17 02:28:38;;;;;;;6.75;1.08;;;10.80;99.90;;;;;;5009224;28;20113;-77
2022/07/17 02:31:04;;;;;;;9.95;0.80;;;10.80;99.90;;;;;;5011479;28;20416;-77
2022/07/17 02:33:29;;;;;;;6.10;0.90;;;10.70;99.90;;;;;;5010176;28;20382;-77
2022/07/17 02:35:55;;;;;;;6.18;0.88;;;10.70;99.90;;;;;;4998807;28;20585;-78
2022/07/17 02:38:20;;;;;;;3.97;0.63;;;10.70;99.90;;;;;;5012572;28;20057;-78
2022/07/17 02:40:46;;;;;;;3.70;0.60;;;10.70;99.90;;;;;;5015630;28;20042;-77
2022/07/17 02:43:11;;;;;;;2.17;0.63;;;10.70;99.90;;;;;;5013987;28;20026;-77
2022/07/17 02:45:37;;;;;;;5.38;0.63;;;10.70;99.90;;;;;;5015192;28;20026;-78
2022/07/17 02:48:03;;;;;;;4.45;0.68;;;10.70;99.90;;;;;;5013980;28;20109;-77
2022/07/17 02:50:28;;;;;;;2.22;0.60;;;10.60;99.90;;;;;;5013392;28;20068;-77
2022/07/17 02:52:54;;;;;;;2.95;0.60;;;10.60;99.90;;;;;;5011649;28;20038;-78
2022/07/17 02:55:20;;;;;;;3.22;0.63;;;10.50;99.90;;;;;;5005228;28;20029;-77
2022/07/17 02:57:49;;;;;;;4.68;1.05;;;10.50;99.90;;;;;;4992356;28;20370;-77
2022/07/17 03:00:16;;;;;;;3.95;1.02;;;10.50;99.90;;;;;;5005635;28;20037;-77
2022/07/17 03:02:43;;;;;;;6.25;0.70;;;10.50;99.90;;;;;;5006218;28;20038;-77
2022/07/17 03:05:09;;;;;;;4.57;0.73;;;10.40;99.90;;;;;;4994723;28;20390;-78
2022/07/17 03:07:35;;;;;;;3.15;0.60;;;10.40;99.90;;;;;;4999649;28;20486;-78
2022/07/17 03:10:01;;;;;;;3.25;0.70;;;10.40;99.90;;;;;;5007902;28;20096;-77
2022/07/17 03:12:27;;;;;;;4.80;0.63;;;10.50;99.90;;;;;;5010802;28;20033;-78
2022/07/17 03:14:53;;;;;;;3.70;0.65;;;10.50;99.90;;;;;;5012011;28;20033;-77
2022/07/17 03:17:18;;;;;;;3.70;0.85;;;10.50;99.90;;;;;;5003984;28;20034;-77
2022/07/17 03:19:44;;;;;;;1.38;0.47;;;10.40;99.90;;;;;;5009626;28;20121;-78
2022/07/17 03:22:09;;;;;;;6.30;0.70;;;10.40;99.90;;;;;;5009042;28;20035;-78
2022/07/17 03:24:35;;;;;;;5.28;0.60;;;10.40;99.90;;;;;;5012118;28;20034;-78
2022/07/17 03:27:00;;;;;;;5.32;0.70;;;10.40;99.90;;;;;;5009737;28;20034;-77
2022/07/17 03:29:26;;;;;;;4.45;0.95;;;10.40;99.90;;;;;;5009868;28;20033;-78
2022/07/17 03:31:51;;;;;;;4.45;0.70;;;10.30;99.90;;;;;;5008608;28;20034;-78
2022/07/17 03:34:17;;;;;;;2.35;0.80;;;10.30;99.90;;;;;;4995715;28;20841;-78
2022/07/17 03:36:42;;;;;;;5.10;1.02;;;10.30;99.90;;;;;;5003954;28;20057;-77
2022/07/17 03:39:08;;;;;;;3.17;0.68;;;10.20;99.90;;;;;;5003974;28;20049;-77
2022/07/17 03:41:34;;;;;;;2.75;0.80;;;10.20;99.90;;;;;;5006732;28;20379;-78
2022/07/17 03:44:00;;;;;;;4.45;0.70;;;10.20;99.90;;;;;;5001512;28;20029;-77
2022/07/17 03:46:25;;;;;;;8.57;1.20;;;10.10;99.90;;;;;;5009284;28;20117;-77
2022/07/17 03:48:51;;;;;;;6.00;0.90;;;10.10;99.90;;;;;;5008716;28;20045;-78
2022/07/17 03:51:17;;;;;;;5.88;0.80;;;10.10;99.90;;;;;;5005241;28;20109;-77
2022/07/17 03:53:42;;;;;;;3.47;0.80;;;10.10;99.90;;;;;;5012594;28;20126;-78
2022/07/17 03:56:08;;;;;;;4.50;0.93;;;10.10;99.90;;;;;;5011267;28;20053;-77
2022/07/17 03:58:34;;;;;;;2.65;0.65;;;10.20;99.90;;;;;;5010462;28;20389;-78
2022/07/17 04:01:00;;;;;;;2.42;0.52;;;10.20;99.90;;;;;;5010288;28;20497;-78
2022/07/17 04:03:25;;;;;;;5.15;0.60;;;10.20;99.90;;;;;;5010176;28;20403;-78
2022/07/17 04:05:52;;;;;;;3.42;0.90;;;10.20;99.90;;;;;;5012036;28;20042;-77
2022/07/17 04:08:18;;;;;;;1.73;0.50;;;10.20;99.90;;;;;;5008906;28;20030;-78
2022/07/17 04:10:44;;;;;;;4.13;0.68;;;10.20;99.90;;;;;;5010804;28;20022;-77
2022/07/17 04:13:10;;;;;;;3.65;0.80;;;10.20;99.90;;;;;;5010632;28;20486;-77
2022/07/17 04:18:22;;;;;;;4.18;0.82;;;10.20;99.90;;;;;;5008951;28;20440;-78
2022/07/17 04:20:48;;;;;;;4.90;0.90;;;10.30;99.90;;;;;;5011124;28;20042;-77
2022/07/17 04:23:14;;;;;;;3.83;0.90;;;10.30;99.90;;;;;;5011679;28;20018;-77
2022/07/17 04:25:40;;;;;;;4.05;0.80;;;10.30;99.90;;;;;;5012307;28;20033;-78
2022/07/17 04:28:06;;;;;;;3.22;0.70;;;10.30;99.90;;;;;;5008706;28;20116;-78
2022/07/17 04:30:32;;;;;;;7.53;0.75;;;10.40;99.90;;;;;;5007831;28;20125;-77
2022/07/17 04:32:58;;;;;;;12.93;0.88;;;10.40;99.90;;;;;;5010885;28;20440;-77
2022/07/17 04:35:23;;;;;;;4.45;0.80;;;10.50;99.90;;;;;;5011460;28;20099;-78
2022/07/17 04:37:49;;;;;;;5.82;0.85;;;10.60;99.90;;;;;;5011285;28;20026;-78
2022/07/17 04:40:15;;;;;;;6.60;0.80;;;10.60;99.90;;;;;;5010348;28;20028;-77
2022/07/17 04:42:40;;;;;;;2.58;0.90;;;10.70;99.90;;;;;;5008422;28;20113;-77
2022/07/17 04:45:06;;;;;;;4.97;1.27;;;10.80;99.90;;;;;;5009565;28;20033;-79
2022/07/17 04:47:34;;;;;;;6.00;1.83;;;11.00;99.90;;;;;;5010615;28;20040;-78
2022/07/17 04:49:59;;;;;;;3.85;1.20;;;11.10;99.90;;;;;;5011123;28;20156;-78
2022/07/17 04:52:25;;;;;;;4.70;1.33;;;11.40;99.90;;;;;;5003794;28;20117;-78
2022/07/17 04:54:50;;;;;;;5.72;1.70;;;11.50;99.90;;;;;;5009230;28;20022;-78
2022/07/17 04:57:16;;;;;;;5.03;0.60;;;11.60;99.90;;;;;;4997603;28;20036;-78
2022/07/17 04:59:41;;;;;;;4.35;1.08;;;11.70;99.90;;;;;;5008909;28;20068;-78
2022/07/17 05:02:07;;;;;;;9.85;1.40;;;11.80;99.90;;;;;;5008601;28;20124;-79
2022/07/17 05:04:33;;;;;;;7.97;1.23;;;11.90;99.90;;;;;;5004862;28;20381;-78
2022/07/17 05:06:58;;;;;;;5.22;0.80;;;12.10;99.90;;;;;;5009506;28;20029;-79
2022/07/17 05:09:25;;;;;;;3.05;0.63;;;12.50;99.90;;;;;;5011089;28;20042;-79
2022/07/17 05:11:51;;;;;;;3.05;0.80;;;12.90;99.90;;;;;;5008482;28;20096;-78
2022/07/17 05:14:17;;;;;;;11.18;1.40;;;13.20;99.90;;;;;;5008919;28;20033;-78
2022/07/17 05:16:42;;;;;;;4.55;0.80;;;13.60;99.90;;;;;;5002673;28;20018;-78
2022/07/17 05:19:08;;;;;;;8.07;0.88;;;13.80;99.90;;;;;;5009401;28;20046;-78
2022/07/17 05:21:34;;;;;;;5.47;1.45;;;14.20;99.90;;;;;;5006963;28;20065;-78
2022/07/17 05:23:59;;;;;;;7.18;0.73;;;14.50;99.90;;;;;;5000852;28;20025;-78
2022/07/17 05:26:26;;;;;;;6.68;1.60;;;14.80;99.90;;;;;;5012665;28;20030;-78
2022/07/17 05:28:51;;;;;;;3.38;0.70;;;15.30;99.90;;;;;;5009709;28;20489;-80
2022/07/17 05:31:17;;;;;;;2.70;0.60;;;15.60;99.90;;;;;;5003933;28;20527;-78
2022/07/17 05:33:42;;;;;;;4.80;0.90;;;15.90;99.90;;;;;;5007693;28;20026;-79
2022/07/17 05:36:08;;;;;;;4.00;0.57;;;16.30;99.90;;;;;;5008148;28;20034;-78
2022/07/17 05:38:34;;;;;;;5.13;0.60;;;16.60;99.90;;;;;;5011150;28;20049;-78
2022/07/17 05:41:00;;;;;;;3.85;0.52;;;16.90;99.90;;;;;;5006602;28;20046;-78
2022/07/17 05:43:26;;;;;;;3.47;0.93;;;17.10;99.90;;;;;;5006184;28;20435;-78
2022/07/17 05:45:55;;;;;;;7.53;1.33;;;17.30;99.90;;;;;;5009304;28;20035;-78
2022/07/17 05:48:21;;;;;;;4.97;1.15;;;17.60;99.90;;;;;;5003795;28;20026;-78
2022/07/17 05:50:47;;;;;;;6.45;1.17;;;17.80;99.90;;;;;;5012998;28;20386;-78
2022/07/17 05:53:14;;;;;;;2.80;0.80;;;17.80;99.90;;;;;;5009958;28;20045;-79
2022/07/17 05:55:39;;;;;;;5.18;1.13;;;17.70;99.90;;;;;;5015007;28;20030;-78
2022/07/17 05:58:05;;;;;;;4.07;0.95;;;17.50;99.90;;;;;;5012495;28;20544;-79
2022/07/17 06:00:31;;;;;;;5.28;1.25;;;17.40;99.90;;;;;;5014705;28;20386;-78
2022/07/17 06:02:56;;;;;;;6.18;1.13;;;17.40;99.90;;;;;;5010392;28;20769;-79
2022/07/17 06:05:22;;;;;;;7.30;1.20;;;17.40;99.90;;;;;;5013148;28;20666;-78
2022/07/17 06:07:47;;;;;;;6.03;1.40;;;17.40;99.90;;;;;;5014201;28;20026;-79
2022/07/17 06:10:13;;;;;;;3.80;1.25;;;17.40;99.90;;;;;;5014665;28;20022;-79
2022/07/17 06:12:38;;;;;;;7.20;1.20;;;17.50;99.90;;;;;;5011594;28;20109;-78
2022/07/17 06:15:04;;;;;;;5.65;1.52;;;17.50;99.90;;;;;;5011815;28;20120;-78
2022/07/17 06:17:30;;;;;;;6.07;1.38;;;17.50;99.90;;;;;;4989483;28;20080;-79
2022/07/17 06:19:55;;;;;;;6.10;1.13;;;17.50;99.90;;;;;;5000045;28;20385;-78
2022/07/17 06:22:21;;;;;;;4.10;0.90;;;17.50;99.90;;;;;;5002068;28;20179;-78
2022/07/17 06:24:48;;;;;;;6.05;1.30;;;17.50;99.90;;;;;;5007670;28;20028;-78
2022/07/17 06:27:14;;;;;;;5.85;0.90;;;17.50;99.90;;;;;;5007079;28;20033;-78
2022/07/17 06:29:40;;;;;;;3.58;0.90;;;17.50;99.90;;;;;;5006819;28;20104;-78
2022/07/17 06:32:06;;;;;;;4.20;0.70;;;17.60;99.90;;;;;;5002577;28;20038;-78
2022/07/17 06:34:31;;;;;;;6.63;0.77;;;17.60;99.90;;;;;;5012171;28;20052;-78
2022/07/17 06:36:57;;;;;;;4.40;0.60;;;17.60;99.90;;;;;;5009612;28;20491;-78
2022/07/17 06:39:23;;;;;;;4.13;0.80;;;17.70;99.90;;;;;;5006689;28;20030;-77
2022/07/17 06:41:48;;;;;;;6.18;0.82;;;17.80;99.50;;;;;;5007493;28;20491;-78
2022/07/17 06:44:14;;;;;;;3.78;0.70;;;17.80;99.40;;;;;;5001216;28;20034;-78
2022/07/17 06:46:40;;;;;;;4.68;0.50;;;17.80;99.20;;;;;;5000700;28;20073;-77
2022/07/17 06:49:05;;;;;;;5.68;0.40;;;17.90;98.80;;;;;;4998042;28;20042;-78
2022/07/17 06:51:31;;;;;;;2.13;0.45;;;18.00;98.20;;;;;;5004775;28;20034;-77
2022/07/17 06:53:56;;;;;;;4.53;0.68;;;18.00;98.00;;;;;;4998104;28;20429;-77
2022/07/17 06:56:22;;;;;;;7.80;0.80;;;18.00;98.10;;;;;;4997505;28;20406;-76
2022/07/17 06:58:47;;;;;;;5.60;0.40;;;18.10;97.70;;;;;;5004209;28;20029;-76
2022/07/17 07:01:13;;;;;;;5.22;0.60;;;18.10;97.30;;;;;;5003491;28;20464;-76
2022/07/17 07:03:39;;;;;;;7.60;0.70;;;18.20;97.10;;;;;;5004784;28;20034;-76
2022/07/17 07:06:04;;;;;;;5.03;0.60;;;18.30;97.00;;;;;;5001729;28;20022;-77
2022/07/17 07:08:30;;;;;;;5.63;0.50;;;18.40;96.70;;;;;;5001848;28;20471;-76
2022/07/17 07:10:55;;;;;;;5.68;0.40;;;18.50;96.40;;;;;;4999420;28;20030;-76
2022/07/17 07:13:21;;;;;;;1.42;0.50;;;18.50;96.30;;;;;;4999027;28;20026;-77
2022/07/17 07:15:47;;;;;;;2.58;0.40;;;18.70;96.30;;;;;;5000363;28;20045;-77
2022/07/17 07:18:12;;;;;;;5.28;0.47;;;18.80;96.10;;;;;;5002953;28;20401;-77
2022/07/17 07:20:38;;;;;;;3.58;0.50;;;18.80;95.60;;;;;;5009528;28;20494;-77
2022/07/17 07:23:04;;;;;;;5.78;0.55;;;18.80;95.30;;;;;;5004629;28;20037;-78
2022/07/17 07:25:30;;;;;;;5.22;0.50;;;18.80;95.10;;;;;;5011451;28;20018;-77
2022/07/17 07:27:56;;;;;;;10.10;1.13;;;18.90;94.70;;;;;;4996674;28;20026;-78
2022/07/17 07:30:21;;;;;;;3.97;0.63;;;18.90;94.70;;;;;;4993855;28;20396;-77
2022/07/17 07:32:47;;;;;;;10.02;0.93;;;18.90;94.30;;;;;;5013844;28;20030;-78
2022/07/17 07:35:12;;;;;;;3.05;0.50;;;18.90;94.10;;;;;;5013209;28;20469;-77
2022/07/17 07:37:38;;;;;;;2.03;0.30;;;18.90;94.10;;;;;;5009740;28;20481;-78
2022/07/17 07:40:05;;;;;;;6.88;0.82;;;18.90;94.20;;;;;;5002867;28;20026;-79
2022/07/17 07:42:30;;;;;;;4.03;0.40;;;18.90;93.90;;;;;;4997954;28;20041;-78
2022/07/17 07:44:56;;;;;;;4.63;0.57;;;19.00;93.80;;;;;;5007531;28;20030;-77
2022/07/17 07:47:22;;;;;;;3.60;0.50;;;19.10;93.50;;;;;;5001430;28;20105;-78
2022/07/17 07:49:48;;;;;;;5.85;0.40;;;19.20;93.10;;;;;;5004595;28;20096;-77
2022/07/17 07:52:14;;;;;;;3.08;0.45;;;19.20;93.00;;;;;;5006955;28;20509;-78
2022/07/17 07:54:39;;;;;;;6.97;0.70;;;19.30;92.90;;;;;;5005871;28;20061;-78
2022/07/17 07:57:05;;;;;;;6.82;0.73;;;19.40;92.40;;;;;;5008923;28;20025;-78
2022/07/17 07:59:34;;;;;;;3.38;0.60;;;19.40;92.10;;;;;;5008406;28;20033;-77
2022/07/17 08:02:00;;;;;;;5.05;0.45;;;19.40;91.80;;;;;;5007525;28;20343;-78
2022/07/17 08:04:26;;;;;;;3.72;0.50;;;19.50;91.80;;;;;;4996125;28;20026;-78
2022/07/17 08:06:52;;;;;;;2.67;0.40;;;19.70;91.80;;;;;;5011858;28;20493;-78
2022/07/17 08:09:17;;;;;;;6.72;0.52;;;19.80;91.40;;;;;;5007185;28;20461;-78
2022/07/17 08:11:43;;;;;;;1.60;0.30;;;19.70;90.80;;;;;;5003265;28;20030;-77
2022/07/17 08:14:08;;;;;;;6.13;0.30;;;19.80;90.50;;;;;;5002117;28;20032;-77
2022/07/17 08:16:35;;;;;;;3.22;0.38;;;19.80;90.40;;;;;;5006018;28;20045;-77
2022/07/17 08:19:00;;;;;;;3.90;0.47;;;19.90;90.40;;;;;;5000944;28;20189;-76
2022/07/17 08:21:26;;;;;;;4.95;0.30;;;20.00;90.40;;;;;;5002425;28;20588;-77
2022/07/17 08:23:51;;;;;;;2.42;0.40;;;20.10;90.20;;;;;;5001788;28;20514;-78
2022/07/17 08:26:17;;;;;;;3.47;0.40;;;20.20;89.90;;;;;;5002217;28;20168;-77
2022/07/17 08:28:42;;;;;;;2.10;0.40;;;20.20;89.50;;;;;;4994862;28;20116;-77
2022/07/17 08:31:08;;;;;;;4.47;0.30;;;20.20;89.40;;;;;;4999293;28;20065;-77
2022/07/17 08:33:33;;;;;;;2.97;0.30;;;20.20;89.40;;;;;;5000516;28;20041;-77
2022/07/17 08:35:59;;;;;;;4.50;0.30;;;20.30;88.80;;;;;;5002995;28;20026;-78
2022/07/17 08:38:25;;;;;;;1.98;0.20;;;20.40;88.50;;;;;;4994104;28;20117;-77
2022/07/17 08:40:53;;;;;;;6.72;1.02;;;20.40;88.10;;;;;;5004522;28;20042;-77
2022/07/17 08:43:19;;;;;;;3.95;0.50;;;20.40;87.90;;;;;;4996503;28;20084;-77
2022/07/17 08:45:46;;;;;;;3.15;0.47;;;20.50;87.70;;;;;;4996517;28;20675;-77
2022/07/17 08:48:13;;;;;;;5.40;0.50;;;20.50;86.90;;;;;;5004923;28;20096;-77
2022/07/17 08:50:40;;;;;;;3.65;0.40;;;20.50;87.40;;;;;;4995251;28;20084;-77
2022/07/17 08:53:06;;;;;;;3.67;0.30;;;20.60;86.90;;;;;;5007223;28;20478;-77
2022/07/17 08:55:32;;;;;;;2.83;0.38;;;20.80;87.40;;;;;;5009923;28;20461;-77
2022/07/17 08:57:58;;;;;;;2.97;0.80;;;21.00;86.90;;;;;;4997555;28;20113;-77
2022/07/17 09:00:25;;;;;;;3.83;0.30;;;21.10;86.10;;;;;;4997255;28;20017;-77
2022/07/17 09:03:03;;;;;;;3.60;0.30;;;21.20;85.30;;;;;;5010310;28;20030;-77
2022/07/17 09:05:36;;;;;;;4.28;0.40;;;21.30;84.60;;;;;;4993281;28;20022;-77
2022/07/17 09:08:03;;;;;;;5.57;0.90;;;21.40;85.00;;;;;;5006147;28;20026;-76
2022/07/17 09:10:31;;;;;;;4.78;0.40;;;21.50;83.90;;;;;;5002724;28;20060;-76
2022/07/17 09:12:58;;;;;;;2.67;0.40;;;21.60;82.50;;;;;;5000714;28;20522;-77
2022/07/17 09:15:24;;;;;;;2.30;0.30;;;21.60;81.50;;;;;;5007967;28;20030;-76
2022/07/17 09:17:55;;;;;;;3.03;0.40;;;21.60;81.30;;;;;;5006637;28;20025;-78
2022/07/17 09:20:22;;;;;;;3.35;0.40;;;21.70;81.10;;;;;;5008637;28;20034;-78
2022/07/17 09:23:04;;;;;;;5.35;0.80;;;21.70;80.60;;;;;;5003610;28;20099;-78
2022/07/17 09:25:34;;;;;;;;;;;21.80;79.10;;;;;;5004160;28;20069;-77
2022/07/17 09:28:03;;;;;;;3.28;0.30;;;21.80;79.80;;;;;;4997012;28;19910;-78
2022/07/17 09:30:29;;;;;;;3.45;0.45;;;21.90;79.50;;;;;;5004498;28;20061;-77
2022/07/17 09:32:55;;;;;;;3.72;0.40;;;22.00;78.90;;;;;;5004684;28;20034;-77
2022/07/17 09:35:23;;;;;;;4.18;0.50;;;22.00;79.00;;;;;;4995215;28;20080;-76
2022/07/17 09:37:51;;;;;;;4.43;0.38;;;22.10;78.30;;;;;;5004648;28;20022;-77
2022/07/17 09:43:02;;;;;;;2.30;0.22;;;22.20;77.20;;;;;;5002497;28;20484;-77
2022/07/17 09:45:28;;;;;;;2.03;0.30;;;22.20;76.50;;;;;;4999991;28;20030;-77
2022/07/17 09:47:54;;;;;;;2.13;0.38;;;22.30;76.30;;;;;;5009096;28;20104;-77
2022/07/17 09:50:20;;;;;;;4.10;0.35;;;22.30;74.60;;;;;;5002711;28;20026;-77
2022/07/17 09:52:48;;;;;;;4.68;0.30;;;22.20;74.10;;;;;;5000151;28;20658;-77
2022/07/17 09:55:16;;;;;;;3.33;0.30;;;22.20;74.40;;;;;;5009039;28;20026;-78
2022/07/17 09:57:47;;;;;;;2.75;0.30;;;22.30;74.30;;;;;;5004354;28;20102;-78
2022/07/17 10:00:13;;;;;;;4.63;0.40;;;22.30;74.10;;;;;;4997366;28;20060;-78
2022/07/17 10:02:42;;;;;;;2.30;0.30;;;22.30;73.30;;;;;;5000106;28;20062;-77
2022/07/17 10:05:15;;;;;;;2.53;0.35;;;22.30;73.20;;;;;;5000989;28;20038;-77
2022/07/17 10:07:42;;;;;;;4.55;0.38;;;22.40;72.50;;;;;;4994372;28;20026;-78
2022/07/17 10:10:09;;;;;;;5.03;0.40;;;22.50;72.50;;;;;;5003554;28;20185;-77
2022/07/17 10:12:38;;;;;;;4.28;0.30;;;22.60;72.50;;;;;;5004686;28;20025;-77
2022/07/17 10:15:05;;;;;;;3.80;0.35;;;22.70;71.50;;;;;;5010139;28;20029;-76
2022/07/17 10:17:31;;;;;;;2.00;0.40;;;22.90;71.20;;;;;;5009509;28;20030;-77
2022/07/17 10:19:57;;;;;;;2.10;0.20;;;22.90;70.60;;;;;;5004935;28;20026;-76
2022/07/17 10:22:24;;;;;;;3.15;0.30;;;22.90;69.80;;;;;;5002905;28;20390;-77
2022/07/17 10:24:54;;;;;;;2.08;0.30;;;22.80;69.10;;;;;;5005238;28;20444;-76
2022/07/17 10:27:19;;;;;;;2.58;0.30;;;22.80;68.80;;;;;;5003460;28;20033;-77
2022/07/17 10:29:45;;;;;;;4.72;0.40;;;22.80;68.00;;;;;;5012307;28;20022;-77
2022/07/17 10:32:18;;;;;;;3.78;0.20;;;22.90;68.20;;;;;;5010657;28;20109;-77
2022/07/17 10:34:52;;;;;;;2.15;0.30;;;22.90;68.10;;;;;;5010493;28;20026;-77
2022/07/17 10:37:27;;;;;;;1.27;0.20;;;23.00;67.60;;;;;;5006832;28;20270;-77
2022/07/17 10:40:20;;;;;;;1.65;0.30;;;23.10;66.80;;;;;;5013376;28;20108;-77
2022/07/17 10:42:45;;;;;;;3.72;0.40;;;23.30;65.90;;;;;;5008364;28;20030;-77
2022/07/17 10:45:16;;;;;;;2.90;0.30;;;23.40;64.70;;;;;;4992631;28;20030;-77
2022/07/17 10:47:54;;;;;;;3.00;0.73;;;23.40;64.70;;;;;;5015181;28;20470;-77
2022/07/17 10:50:45;;;;;;;2.85;0.30;;;23.50;64.00;;;;;;4995603;28;20058;-77
2022/07/17 10:53:28;;;;;;;3.63;0.40;;;23.50;64.10;;;;;;5006381;28;20044;-76
2022/07/17 10:56:00;;;;;;;1.35;0.20;;;23.60;64.50;;;;;;4997022;28;20050;-77
2022/07/17 10:58:27;;;;;;;2.70;0.30;;;23.70;65.30;;;;;;5005854;28;20084;-77
2022/07/17 11:01:00;;;;;;;5.22;0.60;;;23.80;64.10;;;;;;5008844;28;20034;-76
2022/07/17 11:03:26;;;;;;;1.80;0.40;;;23.90;63.90;;;;;;5007068;28;20125;-76
2022/07/17 11:05:51;;;;;;;2.55;0.35;;;23.80;63.20;;;;;;5012768;28;20084;-75
2022/07/17 11:08:17;;;;;;;2.25;0.28;;;23.80;63.50;;;;;;5006738;28;20505;-79
2022/07/17 11:10:43;;;;;;;3.22;0.30;;;23.80;63.60;;;;;;5013624;28;20018;-76
2022/07/17 11:13:13;;;;;;;4.28;0.40;;;23.90;63.70;;;;;;5010439;28;20486;-76
2022/07/17 11:15:47;;;;;;;2.08;0.25;;;24.00;63.30;;;;;;5013493;28;20026;-77
2022/07/17 11:18:19;;;;;;;2.03;0.60;;;24.00;62.80;;;;;;5010163;28;20386;-77
2022/07/17 11:20:48;;;;;;;;;;;24.20;62.90;;;;;;5013592;28;20084;-75
2022/07/17 11:23:14;;;;;;;2.22;0.40;;;24.20;63.20;;;;;;5010927;28;19914;-76
2022/07/17 11:25:54;;;;;;;3.05;0.30;;;24.30;63.20;;;;;;5014221;28;20045;-76
2022/07/17 11:28:35;;;;;;;3.70;0.40;;;24.40;62.90;;;;;;5012571;28;20061;-77
2022/07/17 11:31:03;;;;;;;3.42;0.65;;;24.40;61.90;;;;;;4997916;28;20025;-76
2022/07/17 11:33:28;;;;;;;3.00;0.60;;;24.40;61.80;;;;;;5008037;28;20113;-76
2022/07/17 11:35:54;;;;;;;4.45;0.30;;;24.40;61.90;;;;;;5005392;28;20101;-77
2022/07/17 11:38:28;;;;;;;3.35;0.40;;;24.50;61.50;;;;;;4995136;28;20054;-76
2022/07/17 11:40:54;;;;;;;5.07;0.22;;;24.50;61.10;;;;;;5010473;28;20076;-76
2022/07/17 11:43:20;;;;;;;1.25;0.30;;;24.40;61.20;;;;;;5006110;28;20494;-77
2022/07/17 11:45:47;;;;;;;2.35;0.40;;;24.40;60.80;;;;;;5007614;28;20559;-77
2022/07/17 11:48:13;;;;;;;2.00;0.20;;;24.40;60.80;;;;;;5009560;28;20087;-77
2022/07/17 11:50:38;;;;;;;3.00;0.30;;;24.40;60.10;;;;;;5005446;28;20109;-77
2022/07/17 11:53:05;;;;;;;2.83;0.30;;;24.50;59.40;;;;;;4993303;28;20130;-77
2022/07/17 11:55:43;;;;;;;5.25;0.30;;;24.50;59.40;;;;;;4996491;28;20030;-77
2022/07/17 11:58:08;;;;;;;2.83;0.40;;;24.50;59.10;;;;;;5003695;28;20061;-78
2022/07/17 12:00:35;;;;;;;3.05;0.40;;;24.60;59.70;;;;;;5012446;28;20402;-77
2022/07/17 12:03:02;;;;;;;2.72;0.20;;;24.70;59.80;;;;;;5013274;28;20034;-77
2022/07/17 12:05:29;;;;;;;4.10;0.30;;;24.90;59.90;;;;;;5013356;28;20101;-77
2022/07/17 12:07:55;;;;;;;1.95;0.25;;;24.90;59.50;;;;;;5011884;28;20029;-77
2022/07/17 12:10:22;;;;;;;1.48;0.30;;;24.90;59.70;;;;;;5013285;28;20129;-77
2022/07/17 12:13:04;;;;;;;1.40;0.30;;;25.10;59.50;;;;;;5009519;28;20470;-77
2022/07/17 12:15:45;;;;;;;6.60;0.20;;;25.30;58.90;;;;;;5003181;28;20036;-77
2022/07/17 12:18:23;;;;;;;2.95;0.40;;;25.30;58.30;;;;;;5012085;28;20509;-77
2022/07/17 12:20:52;;;;;;;2.40;0.40;;;25.50;58.50;;;;;;5009345;28;20080;-76
2022/07/17 12:23:33;;;;;;;1.52;0.40;;;25.60;57.70;;;;;;4998893;28;20041;-76
2022/07/17 12:26:10;;;;;;;2.42;0.30;;;25.70;58.30;;;;;;5008388;28;20022;-77
2022/07/17 12:28:37;;;;;;;3.28;0.30;;;25.90;57.90;;;;;;5007717;28;20041;-77
2022/07/17 12:31:03;;;;;;;2.72;0.30;;;26.00;57.20;;;;;;5008167;28;20430;-77
2022/07/17 12:33:29;;;;;;;0.90;0.35;;;26.00;56.60;;;;;;5010989;28;20036;-77
2022/07/17 12:35:54;;;;;;;3.65;0.30;;;25.90;56.30;;;;;;5011780;28;20030;-76
2022/07/17 12:38:20;;;;;;;1.48;0.20;;;25.70;56.10;;;;;;5007042;28;20104;-76
2022/07/17 12:40:45;;;;;;;2.03;0.20;;;25.50;56.40;;;;;;5010409;28;20030;-77
2022/07/17 12:43:11;;;;;;;2.83;0.20;;;25.50;56.10;;;;;;5010376;28;20041;-76
2022/07/17 12:45:37;;;;;;;3.22;0.30;;;25.40;57.00;;;;;;5004595;28;20033;-76
2022/07/17 12:48:02;;;;;;;2.45;0.38;;;25.60;56.90;;;;;;5009799;28;20112;-77
2022/07/17 12:50:28;;;;;;;3.25;0.50;;;25.70;57.30;;;;;;5011422;28;20106;-76
2022/07/17 12:52:53;;;;;;;1.00;0.30;;;25.90;57.20;;;;;;5010008;28;20523;-76